Weather at La Tontouta International Airport

Public forecast

Using degrees Celsius for public forecast. Weather courtesy of forecast.io.

Current aviation weather report (METAR) for La Tontouta International Airport

Retrieved 2020/10/26 19:30 UTC (54 minutes ago):

NWWW 261930Z AUTO 00000KT CAVOK 22/17 Q1015 NOSIG

Aviation forecast (TAF) for La Tontouta International Airport

Retrieved 2020/10/26 18:00 UTC (2 hours ago):

TAF NWWW 261700Z 2618/2718 05005KT CAVOK BECMG 2623/2701 21010KT BECMG 2707/2709 05005KT